createdAt,value
2018-09-12T00:02:08.192Z,17.40
2018-09-12T00:04:36.778Z,17.30
2018-09-12T00:07:05.278Z,17.30
2018-09-12T00:09:33.713Z,17.30
2018-09-12T00:12:02.155Z,17.20
2018-09-12T00:14:30.588Z,17.20
2018-09-12T00:16:59.173Z,17.20
2018-09-12T00:19:27.735Z,17.20
2018-09-12T00:21:56.203Z,17.20
2018-09-12T00:24:24.691Z,17.20
2018-09-12T00:26:53.147Z,17.20
2018-09-12T00:29:21.633Z,17.10
2018-09-12T00:31:50.186Z,17.10
2018-09-12T00:34:18.657Z,17.10
2018-09-12T00:36:47.073Z,17.10
2018-09-12T00:39:15.564Z,17.10
2018-09-12T00:41:43.993Z,17.10
2018-09-12T00:44:12.493Z,17.10
2018-09-12T00:46:40.960Z,17.10
2018-09-12T00:49:09.535Z,17.10
2018-09-12T00:51:37.961Z,17.10
2018-09-12T00:54:06.547Z,17.10
2018-09-12T00:56:34.982Z,17.10
2018-09-12T00:59:03.610Z,17.10
2018-09-12T01:01:32.047Z,17.10
2018-09-12T01:04:00.509Z,17.10
2018-09-12T01:06:29.010Z,17.10
2018-09-12T01:08:57.498Z,17.10
2018-09-12T01:11:25.982Z,17.10
2018-09-12T01:13:55.651Z,17.10
2018-09-12T01:16:24.142Z,17.20
2018-09-12T01:18:52.597Z,17.20
2018-09-12T01:21:21.070Z,17.20
2018-09-12T01:23:49.597Z,17.10
2018-09-12T01:26:18.052Z,17.10
2018-09-12T01:28:46.504Z,17.20
2018-09-12T01:31:14.943Z,17.20
2018-09-12T01:33:43.357Z,17.20
2018-09-12T01:36:11.907Z,17.20
2018-09-12T01:38:40.451Z,17.20
2018-09-12T01:41:08.917Z,17.30
2018-09-12T01:43:37.395Z,17.20
2018-09-12T01:48:31.159Z,17.20
2018-09-12T01:50:59.656Z,17.20
2018-09-12T01:53:28.135Z,17.20
2018-09-12T01:55:56.589Z,17.10
2018-09-12T01:58:25.203Z,17.20
2018-09-12T02:00:53.665Z,17.10
2018-09-12T02:03:22.174Z,17.10
2018-09-12T02:05:50.700Z,17.10
2018-09-12T02:08:19.131Z,17.10
2018-09-12T02:10:47.746Z,17.10
2018-09-12T02:13:16.232Z,17.10
2018-09-12T02:15:44.805Z,17.10
2018-09-12T02:18:13.368Z,17.10
2018-09-12T02:20:41.810Z,17.10
2018-09-12T02:23:10.258Z,17.10
2018-09-12T02:25:38.718Z,17.10
2018-09-12T02:28:07.180Z,17.10
2018-09-12T02:30:35.635Z,17.10
2018-09-12T02:33:04.109Z,17.10
2018-09-12T02:35:32.602Z,17.00
2018-09-12T02:38:01.070Z,17.00
2018-09-12T02:40:29.535Z,16.90
2018-09-12T02:42:57.967Z,16.80
2018-09-12T02:45:26.463Z,16.80
2018-09-12T02:47:55.015Z,16.70
2018-09-12T02:50:23.471Z,16.70
2018-09-12T02:52:51.959Z,16.60
2018-09-12T02:55:20.445Z,16.50
2018-09-12T02:57:48.913Z,16.50
2018-09-12T03:00:17.352Z,16.50
2018-09-12T03:02:45.821Z,16.40
2018-09-12T03:05:14.364Z,16.40
2018-09-12T03:07:42.804Z,16.30
2018-09-12T03:10:11.259Z,16.30
2018-09-12T03:12:39.760Z,16.20
2018-09-12T03:15:08.279Z,16.10
2018-09-12T03:17:36.723Z,16.10
2018-09-12T03:20:05.243Z,16.10
2018-09-12T03:22:33.699Z,16.00
2018-09-12T03:25:02.215Z,16.00
2018-09-12T03:27:30.692Z,16.10
2018-09-12T03:29:59.137Z,16.20
2018-09-12T03:32:27.560Z,16.10
2018-09-12T03:34:56.001Z,16.20
2018-09-12T03:37:24.439Z,16.20
2018-09-12T03:39:52.881Z,16.10
2018-09-12T03:42:21.390Z,16.10
2018-09-12T03:44:50.433Z,16.10
2018-09-12T03:47:18.893Z,16.10
2018-09-12T03:49:47.381Z,16.10
2018-09-12T03:52:15.857Z,16.10
2018-09-12T03:54:44.326Z,16.10
2018-09-12T03:57:12.811Z,16.00
2018-09-12T03:59:41.274Z,16.00
2018-09-12T04:02:10.722Z,16.00
2018-09-12T04:04:39.188Z,16.00
2018-09-12T04:07:07.667Z,16.00
2018-09-12T04:09:36.168Z,16.00
2018-09-12T04:12:04.682Z,16.00
2018-09-12T04:14:33.250Z,16.00
2018-09-12T04:17:01.759Z,15.90
2018-09-12T04:19:30.237Z,15.90
2018-09-12T04:21:58.743Z,15.90
2018-09-12T04:24:27.273Z,15.90
2018-09-12T04:26:55.714Z,15.90
2018-09-12T04:29:24.174Z,15.90
2018-09-12T04:31:52.813Z,15.90
2018-09-12T04:34:21.301Z,16.00
2018-09-12T04:36:49.882Z,16.00
2018-09-12T04:39:18.405Z,16.00
2018-09-12T04:41:46.905Z,15.90
2018-09-12T04:44:15.412Z,15.90
2018-09-12T04:46:43.947Z,15.80
2018-09-12T04:49:12.575Z,15.80
2018-09-12T04:51:41.054Z,15.80
2018-09-12T04:54:09.566Z,15.70
2018-09-12T04:56:38.051Z,15.80
2018-09-12T04:59:06.598Z,15.80
2018-09-12T05:01:35.652Z,15.80
2018-09-12T05:04:04.162Z,15.80
2018-09-12T05:06:32.716Z,15.80
2018-09-12T05:09:01.228Z,15.80
2018-09-12T05:11:29.811Z,15.80
2018-09-12T05:13:58.330Z,15.90
2018-09-12T05:16:26.904Z,15.90
2018-09-12T05:18:55.366Z,16.00
2018-09-12T05:21:24.060Z,16.00
2018-09-12T05:23:52.752Z,16.20
2018-09-12T05:26:21.248Z,16.30
2018-09-12T05:28:49.819Z,16.40
2018-09-12T05:31:18.353Z,16.60
2018-09-12T05:33:46.919Z,16.80
2018-09-12T05:36:15.725Z,17.00
2018-09-12T05:38:44.204Z,17.20
2018-09-12T05:41:12.682Z,17.40
2018-09-12T05:43:41.294Z,17.70
2018-09-12T05:46:09.738Z,17.90
2018-09-12T05:48:38.302Z,18.10
2018-09-12T05:51:07.025Z,18.40
2018-09-12T05:53:35.497Z,18.60
2018-09-12T05:56:03.995Z,18.70
2018-09-12T05:58:32.505Z,18.90
2018-09-12T06:01:00.983Z,19.10
2018-09-12T06:03:29.447Z,19.30
2018-09-12T06:05:57.940Z,19.40
2018-09-12T06:08:26.758Z,19.50
2018-09-12T06:10:55.252Z,19.60
2018-09-12T06:13:23.750Z,19.70
2018-09-12T06:15:52.221Z,19.90
2018-09-12T06:18:20.702Z,20.00
2018-09-12T06:20:49.171Z,20.20
2018-09-12T06:23:17.647Z,20.40
2018-09-12T06:25:46.219Z,20.50
2018-09-12T06:28:14.710Z,20.70
2018-09-12T06:30:43.198Z,20.80
2018-09-12T06:33:11.694Z,20.90
2018-09-12T06:35:40.167Z,21.00
2018-09-12T06:38:08.664Z,21.10
2018-09-12T06:40:37.110Z,21.20
2018-09-12T06:43:06.046Z,21.30
2018-09-12T06:45:34.830Z,21.50
2018-09-12T06:48:03.645Z,21.60
2018-09-12T06:50:32.116Z,21.80
2018-09-12T06:53:01.534Z,22.00
2018-09-12T06:55:30.044Z,22.10
2018-09-12T06:57:58.569Z,22.30
2018-09-12T07:00:27.159Z,22.40
2018-09-12T07:02:55.596Z,22.50
2018-09-12T07:05:24.119Z,22.70
2018-09-12T07:07:52.574Z,22.80
2018-09-12T07:10:21.107Z,23.20
2018-09-12T07:12:49.606Z,23.40
2018-09-12T07:15:18.112Z,23.60
2018-09-12T07:17:46.661Z,23.80
2018-09-12T07:20:15.294Z,23.90
2018-09-12T07:22:43.843Z,23.90
2018-09-12T07:25:14.195Z,24.10
2018-09-12T07:27:42.738Z,24.30
2018-09-12T07:30:11.172Z,24.40
2018-09-12T07:32:39.643Z,24.60
2018-09-12T07:35:08.156Z,24.60
2018-09-12T07:37:37.628Z,24.70
2018-09-12T07:40:06.078Z,24.70
2018-09-12T07:42:34.553Z,24.70
2018-09-12T07:45:03.158Z,24.60
2018-09-12T07:47:31.662Z,24.40
2018-09-12T07:50:00.113Z,24.50
2018-09-12T07:52:28.606Z,24.40
2018-09-12T07:54:57.041Z,24.30
2018-09-12T07:57:25.584Z,24.30
2018-09-12T07:59:54.101Z,24.40
2018-09-12T08:02:22.598Z,24.40
2018-09-12T08:04:51.074Z,24.50
2018-09-12T08:07:19.542Z,24.60
2018-09-12T08:09:48.047Z,24.80
2018-09-12T08:12:16.549Z,24.80
2018-09-12T08:14:45.014Z,24.90
2018-09-12T08:17:13.480Z,25.00
2018-09-12T08:19:42.049Z,25.10
2018-09-12T08:22:10.815Z,25.20
2018-09-12T08:24:39.314Z,25.40
2018-09-12T08:27:07.760Z,25.50
2018-09-12T08:29:36.245Z,25.60
2018-09-12T08:32:04.748Z,25.70
2018-09-12T08:34:33.250Z,25.70
2018-09-12T08:37:01.734Z,25.90
2018-09-12T08:39:30.293Z,26.00
2018-09-12T08:41:58.795Z,26.10
2018-09-12T08:44:27.473Z,26.30
2018-09-12T08:46:55.949Z,26.50
2018-09-12T08:49:24.483Z,26.70
2018-09-12T08:51:53.207Z,26.90
2018-09-12T08:54:21.665Z,27.00
2018-09-12T08:56:50.216Z,26.90
2018-09-12T08:59:18.653Z,26.90
2018-09-12T09:01:47.103Z,27.10
2018-09-12T09:04:15.603Z,27.20
2018-09-12T09:06:44.087Z,27.30
2018-09-12T09:09:13.126Z,27.30
2018-09-12T09:11:41.640Z,27.50
2018-09-12T09:14:10.140Z,27.60
2018-09-12T09:16:38.634Z,27.50
2018-09-12T09:19:07.089Z,27.50
2018-09-12T09:21:35.558Z,27.50
2018-09-12T09:24:04.017Z,27.60
2018-09-12T09:26:32.574Z,27.70
2018-09-12T09:29:01.068Z,27.80
2018-09-12T09:31:29.585Z,27.80
2018-09-12T09:33:58.071Z,27.70
2018-09-12T09:36:26.591Z,27.70
2018-09-12T09:38:55.030Z,27.80
2018-09-12T09:41:23.487Z,27.90
2018-09-12T09:43:52.021Z,28.00
2018-09-12T09:46:20.458Z,28.20
2018-09-12T09:48:49.029Z,28.40
2018-09-12T09:51:17.494Z,28.40
2018-09-12T09:53:46.111Z,28.50
2018-09-12T09:56:14.604Z,28.70
2018-09-12T09:58:43.081Z,28.80
2018-09-12T10:01:16.724Z,28.80
2018-09-12T10:03:52.338Z,28.80
2018-09-12T10:06:25.018Z,28.90
2018-09-12T10:08:57.892Z,29.10
2018-09-12T10:11:26.385Z,29.30
2018-09-12T10:13:54.946Z,29.30
2018-09-12T10:16:23.477Z,29.10
2018-09-12T10:18:51.979Z,28.90
2018-09-12T10:21:20.425Z,29.00
2018-09-12T10:23:48.879Z,29.10
2018-09-12T10:26:17.443Z,29.40
2018-09-12T10:28:45.907Z,29.40
2018-09-12T10:31:14.795Z,29.60
2018-09-12T10:33:43.283Z,30.00
2018-09-12T10:36:11.759Z,30.20
2018-09-12T10:38:40.210Z,30.30
2018-09-12T10:41:08.802Z,30.30
2018-09-12T10:43:37.263Z,30.40
2018-09-12T10:46:05.754Z,30.50
2018-09-12T10:48:34.207Z,30.60
2018-09-12T10:51:02.687Z,30.60
2018-09-12T10:53:31.334Z,30.50
2018-09-12T10:55:59.880Z,30.60
2018-09-12T10:58:28.370Z,30.80
2018-09-12T11:00:56.835Z,31.00
2018-09-12T11:03:25.362Z,31.20
2018-09-12T11:05:53.837Z,31.20
2018-09-12T11:08:22.355Z,31.30
2018-09-12T11:10:50.823Z,31.40
2018-09-12T11:13:19.317Z,31.30
2018-09-12T11:15:47.772Z,31.30
2018-09-12T11:18:16.226Z,31.20
2018-09-12T11:20:44.798Z,31.00
2018-09-12T11:23:13.240Z,31.00
2018-09-12T11:25:41.798Z,31.00
2018-09-12T11:28:10.268Z,31.20
2018-09-12T11:30:39.466Z,31.40
2018-09-12T11:33:07.912Z,31.60
2018-09-12T11:35:36.438Z,31.50
2018-09-12T11:38:04.904Z,31.50
2018-09-12T11:40:33.366Z,31.40
2018-09-12T11:43:01.813Z,31.40
2018-09-12T11:45:30.302Z,31.40
2018-09-12T11:47:58.877Z,31.40
2018-09-12T11:50:27.428Z,31.40
2018-09-12T11:52:55.970Z,31.50
2018-09-12T11:55:24.548Z,31.40
2018-09-12T11:57:53.715Z,31.40
2018-09-12T12:00:22.335Z,31.50
2018-09-12T12:02:50.947Z,31.50
2018-09-12T12:05:19.402Z,31.50
2018-09-12T12:07:47.956Z,31.70
2018-09-12T12:10:16.500Z,31.80
2018-09-12T12:12:45.102Z,31.70
2018-09-12T12:15:14.574Z,31.80
2018-09-12T12:17:43.100Z,31.70
2018-09-12T12:20:11.539Z,31.70
2018-09-12T12:22:40.097Z,31.60
2018-09-12T12:25:08.545Z,31.70
2018-09-12T12:27:37.059Z,31.60
2018-09-12T12:30:05.575Z,31.80
2018-09-12T12:32:34.121Z,32.00
2018-09-12T12:35:02.593Z,32.20
2018-09-12T12:37:31.095Z,32.20
2018-09-12T12:39:59.576Z,32.20
2018-09-12T12:42:28.052Z,32.30
2018-09-12T12:44:56.530Z,32.50
2018-09-12T12:47:25.017Z,32.00
2018-09-12T12:49:54.006Z,31.30
2018-09-12T12:52:22.505Z,31.20
2018-09-12T12:54:51.045Z,31.40
2018-09-12T12:57:19.610Z,31.60
2018-09-12T12:59:48.083Z,31.50
2018-09-12T13:02:16.569Z,31.60
2018-09-12T13:04:45.095Z,31.90
2018-09-12T13:07:15.263Z,32.00
2018-09-12T13:09:44.076Z,32.30
2018-09-12T13:12:12.577Z,32.10
2018-09-12T13:14:41.120Z,31.80
2018-09-12T13:17:09.626Z,31.60
2018-09-12T13:19:38.152Z,31.90
2018-09-12T13:22:06.655Z,32.10
2018-09-12T13:24:35.178Z,32.10
2018-09-12T13:27:03.671Z,31.90
2018-09-12T13:29:32.449Z,32.30
2018-09-12T13:32:00.905Z,32.70
2018-09-12T13:34:29.378Z,32.90
2018-09-12T13:36:57.871Z,33.00
2018-09-12T13:39:26.384Z,32.80
2018-09-12T13:41:54.859Z,32.60
2018-09-12T13:44:23.388Z,32.70
2018-09-12T13:46:51.850Z,32.80
2018-09-12T13:49:20.343Z,33.00
2018-09-12T13:51:49.548Z,33.10
2018-09-12T13:54:18.052Z,33.00
2018-09-12T13:56:46.611Z,32.50
2018-09-12T13:59:15.062Z,32.50
2018-09-12T14:01:43.506Z,32.40
2018-09-12T14:04:11.998Z,32.40
2018-09-12T14:06:40.521Z,32.30
2018-09-12T14:09:10.428Z,32.60
2018-09-12T14:11:38.951Z,32.40
2018-09-12T14:14:07.812Z,32.30
2018-09-12T14:16:36.301Z,31.70
2018-09-12T14:19:04.782Z,31.50
2018-09-12T14:21:33.240Z,31.50
2018-09-12T14:24:01.705Z,31.40
2018-09-12T14:26:30.703Z,31.50
2018-09-12T14:28:59.403Z,31.80
2018-09-12T14:31:27.876Z,32.00
2018-09-12T14:33:56.379Z,32.00
2018-09-12T14:36:24.879Z,31.80
2018-09-12T14:38:53.377Z,31.90
2018-09-12T14:41:21.836Z,31.90
2018-09-12T14:43:50.303Z,32.00
2018-09-12T14:46:18.773Z,31.80
2018-09-12T14:48:47.264Z,32.00
2018-09-12T14:51:15.778Z,32.00
2018-09-12T14:53:44.220Z,32.20
2018-09-12T14:56:12.669Z,32.20
2018-09-12T14:58:41.183Z,32.00
2018-09-12T15:01:09.689Z,31.80
2018-09-12T15:03:38.202Z,31.80
2018-09-12T15:06:06.865Z,31.80
2018-09-12T15:08:35.386Z,31.80
2018-09-12T15:11:03.996Z,31.70
2018-09-12T15:13:32.470Z,31.60
2018-09-12T15:16:00.922Z,31.60
2018-09-12T15:18:29.555Z,31.50
2018-09-12T15:20:57.981Z,31.40
2018-09-12T15:23:26.510Z,31.10
2018-09-12T15:25:54.987Z,30.90
2018-09-12T15:28:23.509Z,30.80
2018-09-12T15:30:52.037Z,30.60
2018-09-12T15:33:20.571Z,30.40
2018-09-12T15:35:49.105Z,30.20
2018-09-12T15:38:17.564Z,30.20
2018-09-12T15:40:46.094Z,30.10
2018-09-12T15:43:14.571Z,30.00
2018-09-12T15:45:43.064Z,29.80
2018-09-12T15:48:11.553Z,29.50
2018-09-12T15:50:39.988Z,29.20
2018-09-12T15:53:08.950Z,28.90
2018-09-12T15:55:37.406Z,28.80
2018-09-12T15:58:05.925Z,28.50
2018-09-12T16:00:34.410Z,28.20
2018-09-12T16:03:02.906Z,27.90
2018-09-12T16:05:31.404Z,27.70
2018-09-12T16:07:59.926Z,27.60
2018-09-12T16:10:28.427Z,27.50
2018-09-12T16:12:57.140Z,27.40
2018-09-12T16:15:26.259Z,27.40
2018-09-12T16:17:54.686Z,27.30
2018-09-12T16:20:23.221Z,27.30
2018-09-12T16:22:51.755Z,27.20
2018-09-12T16:25:20.277Z,27.20
2018-09-12T16:27:48.719Z,27.20
2018-09-12T16:30:17.226Z,27.20
2018-09-12T16:32:45.927Z,27.20
2018-09-12T16:35:14.256Z,27.20
2018-09-12T16:37:42.867Z,27.20
2018-09-12T16:40:11.423Z,27.10
2018-09-12T16:42:39.908Z,27.00
2018-09-12T16:45:08.430Z,26.90
2018-09-12T16:47:36.939Z,26.90
2018-09-12T16:50:06.311Z,26.80
2018-09-12T16:52:35.065Z,26.70
2018-09-12T16:55:03.570Z,26.70
2018-09-12T16:57:32.108Z,26.60
2018-09-12T17:00:00.707Z,26.50
2018-09-12T17:02:29.209Z,26.50
2018-09-12T17:04:57.643Z,26.40
2018-09-12T17:07:26.178Z,26.30
2018-09-12T17:09:54.661Z,26.20
2018-09-12T17:12:23.248Z,26.10
2018-09-12T17:14:51.722Z,26.00
2018-09-12T17:17:20.215Z,25.90
2018-09-12T17:19:48.722Z,25.90
2018-09-12T17:22:17.212Z,25.80
2018-09-12T17:24:46.528Z,25.70
2018-09-12T17:27:15.490Z,25.60
2018-09-12T17:29:45.331Z,25.50
2018-09-12T17:32:13.973Z,25.50
2018-09-12T17:34:42.739Z,25.40
2018-09-12T17:37:11.580Z,25.30
2018-09-12T17:39:40.366Z,25.10
2018-09-12T17:42:09.129Z,25.00
2018-09-12T17:44:38.638Z,24.90
2018-09-12T17:47:08.800Z,24.80
2018-09-12T17:49:37.707Z,24.70
2018-09-12T17:52:06.606Z,24.70
2018-09-12T17:54:36.371Z,24.60
2018-09-12T17:57:05.501Z,24.60
2018-09-12T17:59:34.511Z,24.50
2018-09-12T18:02:03.936Z,24.40
2018-09-12T18:04:33.395Z,24.30
2018-09-12T18:07:03.167Z,24.20
2018-09-12T18:09:31.999Z,24.20
2018-09-12T18:12:00.924Z,24.10
2018-09-12T18:14:29.736Z,24.00
2018-09-12T18:16:59.276Z,23.90
2018-09-12T18:19:28.269Z,23.80
2018-09-12T18:21:57.197Z,23.70
2018-09-12T18:24:27.108Z,23.70
2018-09-12T18:26:56.587Z,23.60
2018-09-12T18:29:26.044Z,23.50
2018-09-12T18:31:55.181Z,23.40
2018-09-12T18:34:24.703Z,23.30
2018-09-12T18:36:54.187Z,23.20
2018-09-12T18:39:23.742Z,23.10
2018-09-12T18:41:53.374Z,23.10
2018-09-12T18:44:22.444Z,23.00
2018-09-12T18:46:51.780Z,23.00
2018-09-12T18:49:21.441Z,23.00
2018-09-12T18:51:50.415Z,23.00
2018-09-12T18:54:19.857Z,23.00
2018-09-12T18:56:48.857Z,22.90
2018-09-12T18:59:18.335Z,22.80
2018-09-12T19:01:47.787Z,22.70
2018-09-12T19:04:16.868Z,22.70
2018-09-12T19:06:46.292Z,22.60
2018-09-12T19:09:15.513Z,22.60
2018-09-12T19:11:45.757Z,22.60
2018-09-12T19:14:15.160Z,22.50
2018-09-12T19:16:44.363Z,22.40
2018-09-12T19:19:13.695Z,22.40
2018-09-12T19:21:43.199Z,22.30
2018-09-12T19:24:14.337Z,22.20
2018-09-12T19:26:44.111Z,22.10
2018-09-12T19:29:13.709Z,22.00
2018-09-12T19:31:43.420Z,21.90
2018-09-12T19:34:12.942Z,21.90
2018-09-12T19:36:44.006Z,21.80
2018-09-12T19:39:13.295Z,21.80
2018-09-12T19:41:42.577Z,21.70
2018-09-12T19:44:12.236Z,21.70
2018-09-12T19:46:41.749Z,21.60
2018-09-12T19:49:10.855Z,21.50
2018-09-12T19:51:40.261Z,21.50
2018-09-12T19:54:09.634Z,21.40
2018-09-12T19:56:38.793Z,21.30
2018-09-12T19:59:07.865Z,21.20
2018-09-12T20:01:37.140Z,21.20
2018-09-12T20:04:06.431Z,21.20
2018-09-12T20:06:35.870Z,21.20
2018-09-12T20:09:07.126Z,21.10
2018-09-12T20:11:37.299Z,21.10
2018-09-12T20:14:06.609Z,21.00
2018-09-12T20:16:35.380Z,21.00
2018-09-12T20:19:04.563Z,21.00
2018-09-12T20:21:33.056Z,20.90
2018-09-12T20:24:01.877Z,20.90
2018-09-12T20:26:30.834Z,20.80
2018-09-12T20:29:00.262Z,20.90
2018-09-12T20:31:29.720Z,20.90
2018-09-12T20:33:58.369Z,20.80
2018-09-12T20:36:27.227Z,20.80
2018-09-12T20:38:56.235Z,20.80
2018-09-12T20:41:25.846Z,20.80
2018-09-12T20:43:55.835Z,20.80
2018-09-12T20:46:24.905Z,20.70
2018-09-12T20:48:54.388Z,20.70
2018-09-12T20:51:23.213Z,20.70
2018-09-12T20:53:52.464Z,20.70
2018-09-12T20:56:21.131Z,20.60
2018-09-12T20:58:49.950Z,20.60
2018-09-12T21:01:18.720Z,20.50
2018-09-12T21:03:47.322Z,20.50
2018-09-12T21:06:16.534Z,20.50
2018-09-12T21:08:45.216Z,20.40
2018-09-12T21:11:14.172Z,20.30
2018-09-12T21:13:43.102Z,20.30
2018-09-12T21:16:11.864Z,20.30
2018-09-12T21:18:40.601Z,20.30
2018-09-12T21:21:09.187Z,20.20
2018-09-12T21:23:37.708Z,20.20
2018-09-12T21:26:06.445Z,20.20
2018-09-12T21:28:35.958Z,20.20
2018-09-12T21:31:04.582Z,20.10
2018-09-12T21:33:33.128Z,20.10
2018-09-12T21:36:02.387Z,20.10
2018-09-12T21:38:30.897Z,20.10
2018-09-12T21:40:59.420Z,20.00
2018-09-12T21:43:27.983Z,20.00
2018-09-12T21:45:56.457Z,20.00
2018-09-12T21:48:24.961Z,20.00
2018-09-12T21:50:53.553Z,20.00
2018-09-12T21:53:22.035Z,20.00
2018-09-12T21:55:50.677Z,20.00
2018-09-12T21:58:19.239Z,19.90
2018-09-12T22:00:48.423Z,19.90
2018-09-12T22:03:16.923Z,19.80
2018-09-12T22:05:45.484Z,19.80
2018-09-12T22:08:13.931Z,19.70
2018-09-12T22:10:42.398Z,19.70
2018-09-12T22:13:10.874Z,19.80
2018-09-12T22:15:39.547Z,19.70
2018-09-12T22:18:08.135Z,19.80
2018-09-12T22:20:36.645Z,19.80
2018-09-12T22:23:05.196Z,19.70
2018-09-12T22:25:33.754Z,19.70
2018-09-12T22:28:02.256Z,19.60
2018-09-12T22:30:30.714Z,19.60
2018-09-12T22:32:59.286Z,19.60
2018-09-12T22:35:27.833Z,19.80
2018-09-12T22:37:57.012Z,19.60
2018-09-12T22:40:26.132Z,19.60
2018-09-12T22:42:54.586Z,19.60
2018-09-12T22:45:23.089Z,19.60
2018-09-12T22:47:51.547Z,19.60
2018-09-12T22:50:20.088Z,19.60
2018-09-12T22:52:48.535Z,19.50
2018-09-12T22:55:17.057Z,19.50
2018-09-12T22:57:45.561Z,19.50
2018-09-12T23:00:14.114Z,19.50
2018-09-12T23:02:42.538Z,19.40
2018-09-12T23:05:11.017Z,19.50
2018-09-12T23:07:39.558Z,19.50
2018-09-12T23:10:08.162Z,19.50
2018-09-12T23:12:36.699Z,19.50
2018-09-12T23:15:05.248Z,19.50
2018-09-12T23:17:33.717Z,19.50
2018-09-12T23:20:02.176Z,19.50
2018-09-12T23:22:30.643Z,19.50
2018-09-12T23:24:59.128Z,19.50
2018-09-12T23:27:27.570Z,19.50
2018-09-12T23:29:56.031Z,19.50
2018-09-12T23:32:24.748Z,19.40
2018-09-12T23:34:53.258Z,19.40
2018-09-12T23:37:21.682Z,19.40
2018-09-12T23:39:50.018Z,19.30
2018-09-12T23:42:18.509Z,19.30
2018-09-12T23:44:47.232Z,19.30
2018-09-12T23:47:15.708Z,19.20
2018-09-12T23:49:44.141Z,19.30
2018-09-12T23:52:12.862Z,19.30
2018-09-12T23:54:41.320Z,19.30
2018-09-12T23:57:09.788Z,19.20
2018-09-12T23:59:38.325Z,19.20
